Time;durP1;ratioP1;P1;durP2;ratioP2;P2;SDS_P1;SDS_P2;PMS_P1;PMS_P2;Temp;Humidity;BMP_temperature;BMP_pressure;BME280_temperature;BME280_humidity;BME280_pressure;Samples;Min_cycle;Max_cycle;Signal;HPM_P1;HPM_P2
2021/11/11 00:01:46;;;;;;;19.13;12.30;;;;;;;;;;5022163;28;20252;-73
2021/11/11 00:04:11;;;;;;;16.40;11.37;;;;;;;;;;5029527;28;20610;-74
2021/11/11 00:06:39;;;;;;;21.43;11.70;;;;;;;;;;5022515;28;20174;-78
2021/11/11 00:09:04;;;;;;;19.23;11.90;;;;;;;;;;5022353;28;20154;-73
2021/11/11 00:11:30;;;;;;;23.17;13.03;;;;;;;;;;5020140;28;20871;-78
2021/11/11 00:13:55;;;;;;;18.87;13.50;;;;;;;;;;5013711;28;20158;-78
2021/11/11 00:16:21;;;;;;;19.93;13.93;;;;;;;;;;5021422;28;20196;-78
2021/11/11 00:18:46;;;;;;;23.40;16.23;;;;;;;;;;5028765;28;20636;-76
2021/11/11 00:21:11;;;;;;;44.40;25.23;;;;;;;;;;5030251;28;20165;-74
2021/11/11 00:23:37;;;;;;;44.73;28.27;;;;;;;;;;5022292;28;20208;-78
2021/11/11 00:26:02;;;;;;;27.00;18.27;;;;;;;;;;5014585;28;20540;-78
2021/11/11 00:28:28;;;;;;;33.17;18.50;;;;;;;;;;5029814;28;20193;-79
2021/11/11 00:30:53;;;;;;;30.40;19.90;;;;;;;;;;5030033;28;20174;-78
2021/11/11 00:33:19;;;;;;;30.80;19.20;;;;;;;;;;5028023;28;20158;-77
2021/11/11 00:35:44;;;;;;;28.03;19.50;;;;;;;;;;5012670;28;20233;-75
2021/11/11 00:38:10;;;;;;;38.53;19.70;;;;;;;;;;5016856;28;20636;-76
2021/11/11 00:40:35;;;;;;;25.50;15.20;;;;;;;;;;5027804;28;20170;-75
2021/11/11 00:43:01;;;;;;;28.07;14.50;;;;;;;;;;5029244;28;20161;-76
2021/11/11 00:45:26;;;;;;;22.00;11.90;;;;;;;;;;5027133;28;20197;-74
2021/11/11 00:47:52;;;;;;;16.57;10.30;;;;;;;;;;5025433;28;20407;-72
2021/11/11 00:50:19;;;;;;;16.90;8.23;;;;;;;;;;5018397;28;20603;-76
2021/11/11 00:52:45;;;;;;;22.00;12.70;;;;;;;;;;5025414;28;20489;-75
2021/11/11 00:55:10;;;;;;;21.70;12.57;;;;;;;;;;5023118;28;20397;-76
2021/11/11 00:57:36;;;;;;;16.37;10.90;;;;;;;;;;5019490;28;20668;-78
2021/11/11 01:00:02;;;;;;;17.30;10.70;;;;;;;;;;5012393;28;20692;-75
2021/11/11 01:02:27;;;;;;;18.17;12.03;;;;;;;;;;5025601;28;20696;-73
2021/11/11 01:04:52;;;;;;;19.43;10.33;;;;;;;;;;5020692;28;20511;-75
2021/11/11 01:07:19;;;;;;;19.50;10.80;;;;;;;;;;5027352;28;20194;-77
2021/11/11 01:09:44;;;;;;;16.30;9.83;;;;;;;;;;5029750;28;20193;-78
2021/11/11 01:12:09;;;;;;;25.53;10.73;;;;;;;;;;5018600;28;20402;-77
2021/11/11 01:14:35;;;;;;;19.60;11.80;;;;;;;;;;5010421;28;20174;-77
2021/11/11 01:17:01;;;;;;;19.23;10.83;;;;;;;;;;5011160;28;20205;-74
2021/11/11 01:19:27;;;;;;;19.30;10.50;;;;;;;;;;5012082;28;20411;-74
2021/11/11 01:21:53;;;;;;;19.23;10.53;;;;;;;;;;5023493;28;20412;-77
2021/11/11 01:24:18;;;;;;;21.93;11.40;;;;;;;;;;5015423;28;20676;-75
2021/11/11 01:26:44;;;;;;;16.10;10.27;;;;;;;;;;5029204;28;20552;-74
2021/11/11 01:29:09;;;;;;;24.90;13.43;;;;;;;;;;5025067;28;20173;-76
2021/11/11 01:31:35;;;;;;;16.03;12.10;;;;;;;;;;5029191;28;20671;-78
2021/11/11 01:34:01;;;;;;;15.43;9.50;;;;;;;;;;5028466;28;20154;-75
2021/11/11 01:36:27;;;;;;;20.73;12.30;;;;;;;;;;5020731;28;20183;-78
2021/11/11 01:38:52;;;;;;;15.60;8.70;;;;;;;;;;5018177;28;20415;-79
2021/11/11 01:41:17;;;;;;;23.90;12.53;;;;;;;;;;5026797;28;20166;-73
2021/11/11 01:43:44;;;;;;;20.50;10.30;;;;;;;;;;5015426;28;20708;-76
2021/11/11 01:46:09;;;;;;;17.90;11.03;;;;;;;;;;5009423;28;20429;-73
2021/11/11 01:48:35;;;;;;;20.43;11.73;;;;;;;;;;5010547;28;20174;-79
2021/11/11 01:51:00;;;;;;;27.00;13.73;;;;;;;;;;5022906;28;20184;-74
2021/11/11 01:53:26;;;;;;;21.30;14.93;;;;;;;;;;5027082;28;20174;-75
2021/11/11 01:55:52;;;;;;;27.20;13.17;;;;;;;;;;5018653;28;20614;-76
2021/11/11 01:58:17;;;;;;;22.53;14.07;;;;;;;;;;5010284;28;20316;-75
2021/11/11 02:00:54;;;;;;;20.30;10.97;;;;;;;;;;5028679;28;20420;-74
2021/11/11 02:03:19;;;;;;;29.23;15.57;;;;;;;;;;5028751;28;20299;-74
2021/11/11 02:05:45;;;;;;;51.43;16.43;;;;;;;;;;5021618;28;20421;-76
2021/11/11 02:08:11;;;;;;;23.43;15.03;;;;;;;;;;5015374;28;20154;-75
2021/11/11 02:10:36;;;;;;;29.30;14.93;;;;;;;;;;5028857;28;20299;-73
2021/11/11 02:13:04;;;;;;;26.17;14.90;;;;;;;;;;5027226;28;20176;-75
2021/11/11 02:15:29;;;;;;;23.73;15.93;;;;;;;;;;5017489;28;20552;-77
2021/11/11 02:17:55;;;;;;;26.27;16.17;;;;;;;;;;5015725;28;20440;-77
2021/11/11 02:20:23;;;;;;;26.63;17.83;;;;;;;;;;5028204;28;20541;-77
2021/11/11 02:22:49;;;;;;;33.50;20.13;;;;;;;;;;5011962;28;20464;-80
2021/11/11 02:25:15;;;;;;;32.83;20.30;;;;;;;;;;5026031;28;20453;-74
2021/11/11 02:27:41;;;;;;;37.37;21.57;;;;;;;;;;5011680;28;20157;-79
2021/11/11 02:30:08;;;;;;;37.70;21.20;;;;;;;;;;5017433;28;20405;-78
2021/11/11 02:32:34;;;;;;;32.40;21.10;;;;;;;;;;5030244;28;20412;-80
2021/11/11 02:35:00;;;;;;;38.07;22.80;;;;;;;;;;5016916;28;20401;-76
2021/11/11 02:37:29;;;;;;;39.53;23.30;;;;;;;;;;5013055;28;20471;-76
2021/11/11 02:39:55;;;;;;;34.67;19.97;;;;;;;;;;5031802;28;20157;-73
2021/11/11 02:42:21;;;;;;;36.90;25.40;;;;;;;;;;5029509;28;20779;-78
2021/11/11 02:44:46;;;;;;;38.33;21.90;;;;;;;;;;5031179;28;20616;-74
2021/11/11 02:47:11;;;;;;;25.23;16.77;;;;;;;;;;5029500;28;20161;-74
2021/11/11 02:49:36;;;;;;;36.63;20.00;;;;;;;;;;5022276;28;20233;-76
2021/11/11 02:52:02;;;;;;;34.47;22.07;;;;;;;;;;5026480;28;20569;-76
2021/11/11 02:54:28;;;;;;;33.17;16.20;;;;;;;;;;5015782;28;20252;-76
2021/11/11 02:56:53;;;;;;;22.90;15.83;;;;;;;;;;5025201;28;20768;-75
2021/11/11 02:59:18;;;;;;;33.20;18.10;;;;;;;;;;5023728;28;20532;-73
2021/11/11 03:01:44;;;;;;;28.03;16.70;;;;;;;;;;5019002;28;20162;-78
2021/11/11 03:04:09;;;;;;;29.40;17.23;;;;;;;;;;5016716;28;20217;-75
2021/11/11 03:06:37;;;;;;;22.30;14.47;;;;;;;;;;5016140;28;20173;-73
2021/11/11 03:09:02;;;;;;;24.57;16.40;;;;;;;;;;5015221;28;20646;-76
2021/11/11 03:11:29;;;;;;;26.73;14.47;;;;;;;;;;5033464;28;20918;-78
2021/11/11 03:13:55;;;;;;;29.63;18.20;;;;;;;;;;5020544;28;20637;-74
2021/11/11 03:16:20;;;;;;;27.30;17.10;;;;;;;;;;5029260;28;20424;-78
2021/11/11 03:18:45;;;;;;;32.63;16.77;;;;;;;;;;5026408;28;20162;-78
2021/11/11 03:21:10;;;;;;;26.40;13.93;;;;;;;;;;5015060;28;20177;-79
2021/11/11 03:23:36;;;;;;;27.43;17.10;;;;;;;;;;5018025;28;20194;-76
2021/11/11 03:26:01;;;;;;;25.57;17.67;;;;;;;;;;5030751;28;20173;-80
2021/11/11 03:28:26;;;;;;;30.20;15.90;;;;;;;;;;5026098;28;20243;-78
2021/11/11 03:30:52;;;;;;;27.83;17.80;;;;;;;;;;5033989;28;20165;-79
2021/11/11 03:33:17;;;;;;;24.93;16.80;;;;;;;;;;5032579;28;20162;-78
2021/11/11 03:35:42;;;;;;;27.60;16.23;;;;;;;;;;5024717;28;20170;-78
2021/11/11 03:38:08;;;;;;;19.27;12.60;;;;;;;;;;5027201;28;20162;-77
2021/11/11 03:40:35;;;;;;;25.97;14.63;;;;;;;;;;5014702;28;20181;-77
2021/11/11 03:43:01;;;;;;;28.17;16.30;;;;;;;;;;5030686;28;20625;-73
2021/11/11 03:45:30;;;;;;;24.57;15.53;;;;;;;;;;5033958;28;20455;-73
2021/11/11 03:47:55;;;;;;;41.63;17.60;;;;;;;;;;5016533;28;20422;-79
2021/11/11 03:50:21;;;;;;;26.80;16.57;;;;;;;;;;5026659;28;20594;-78
2021/11/11 03:52:49;;;;;;;24.70;14.77;;;;;;;;;;5030211;28;20621;-74
2021/11/11 03:55:15;;;;;;;26.30;15.43;;;;;;;;;;5019765;28;20414;-79
2021/11/11 03:57:40;;;;;;;31.23;17.10;;;;;;;;;;5014654;28;20416;-78
2021/11/11 04:00:06;;;;;;;25.90;15.87;;;;;;;;;;5014090;28;20936;-72
2021/11/11 04:02:32;;;;;;;21.77;13.20;;;;;;;;;;5021080;28;20645;-78
2021/11/11 04:04:57;;;;;;;21.73;15.87;;;;;;;;;;5020079;28;20462;-74
2021/11/11 04:07:22;;;;;;;22.23;15.67;;;;;;;;;;5032154;28;20154;-78
2021/11/11 04:09:48;;;;;;;27.17;16.60;;;;;;;;;;5029809;28;20173;-78
2021/11/11 04:12:14;;;;;;;32.40;17.40;;;;;;;;;;5013616;28;20532;-78
2021/11/11 04:14:40;;;;;;;28.80;17.87;;;;;;;;;;5026539;28;20248;-77
2021/11/11 04:17:05;;;;;;;27.67;15.30;;;;;;;;;;5030757;28;20405;-78
2021/11/11 04:19:30;;;;;;;24.67;15.00;;;;;;;;;;5018154;28;20173;-77
2021/11/11 04:21:56;;;;;;;21.27;13.87;;;;;;;;;;5031635;28;20185;-82
2021/11/11 04:24:21;;;;;;;30.53;18.70;;;;;;;;;;5032356;28;20197;-81
2021/11/11 04:29:32;;;;;;;29.23;19.00;;;;;;;;;;5033656;28;20153;-72
2021/11/11 04:32:02;;;;;;;28.17;20.50;;;;;;;;;;5018455;28;20977;-72
2021/11/11 04:34:28;;;;;;;38.53;21.70;;;;;;;;;;5032951;28;20838;-79
2021/11/11 04:53:08;;;;;;;55.33;31.23;;;;;;;;;;5030945;28;20420;-81
2021/11/11 05:05:54;;;;;;;36.93;23.20;;;;;;;;;;5023592;28;20947;-81
2021/11/11 05:08:19;;;;;;;41.03;23.73;;;;;;;;;;5018313;28;20151;-75
2021/11/11 05:10:49;;;;;;;38.17;21.13;;;;;;;;;;5029021;28;20405;-77
2021/11/11 05:13:14;;;;;;;40.40;22.43;;;;;;;;;;5024025;28;20154;-81
2021/11/11 05:15:39;;;;;;;37.20;20.57;;;;;;;;;;5024030;28;20399;-80
2021/11/11 05:18:05;;;;;;;37.23;24.00;;;;;;;;;;5019282;28;20241;-77
2021/11/11 05:20:30;;;;;;;52.53;23.50;;;;;;;;;;5020646;28;20616;-82
2021/11/11 05:22:55;;;;;;;39.70;22.60;;;;;;;;;;5023815;28;20190;-81
2021/11/11 05:25:21;;;;;;;30.13;15.57;;;;;;;;;;5029869;28;20182;-76
2021/11/11 05:27:46;;;;;;;39.20;25.00;;;;;;;;;;5015685;28;20150;-77
2021/11/11 05:30:12;;;;;;;38.00;24.53;;;;;;;;;;5014705;28;20154;-82
2021/11/11 05:32:38;;;;;;;35.57;21.10;;;;;;;;;;5028380;28;20173;-76
2021/11/11 05:35:04;;;;;;;54.77;21.63;;;;;;;;;;5021581;28;20809;-79
2021/11/11 05:37:29;;;;;;;34.33;20.70;;;;;;;;;;5028219;28;20158;-75
2021/11/11 05:39:55;;;;;;;31.27;19.97;;;;;;;;;;5024323;28;20496;-75
2021/11/11 05:42:20;;;;;;;36.37;20.57;;;;;;;;;;5028595;28;20177;-79
2021/11/11 05:44:46;;;;;;;64.80;17.80;;;;;;;;;;5024738;28;20202;-79
2021/11/11 05:47:11;;;;;;;25.30;15.20;;;;;;;;;;5012436;28;20170;-73
2021/11/11 05:49:36;;;;;;;38.50;22.10;;;;;;;;;;5028943;28;20193;-75
2021/11/11 05:52:02;;;;;;;33.23;19.57;;;;;;;;;;5019302;28;20212;-77
2021/11/11 05:54:28;;;;;;;38.20;21.63;;;;;;;;;;5019958;28;20194;-74
2021/11/11 05:56:53;;;;;;;32.53;22.07;;;;;;;;;;5012463;28;20236;-72
2021/11/11 05:59:18;;;;;;;37.47;20.13;;;;;;;;;;5011455;28;20181;-73
2021/11/11 06:01:44;;;;;;;34.23;20.03;;;;;;;;;;5015764;28;20158;-71
2021/11/11 06:04:09;;;;;;;39.80;21.33;;;;;;;;;;5028383;28;20241;-74
2021/11/11 06:06:34;;;;;;;36.03;20.50;;;;;;;;;;5026285;28;20164;-70
2021/11/11 06:09:00;;;;;;;30.13;18.47;;;;;;;;;;5011800;28;20648;-73
2021/11/11 06:11:25;;;;;;;41.37;23.27;;;;;;;;;;5009593;28;20268;-72
2021/11/11 06:13:51;;;;;;;38.30;24.73;;;;;;;;;;5011451;28;20186;-71
2021/11/11 06:16:16;;;;;;;42.60;24.87;;;;;;;;;;5011701;28;20154;-75
2021/11/11 06:18:41;;;;;;;36.80;25.80;;;;;;;;;;5022489;28;20506;-75
2021/11/11 06:21:07;;;;;;;26.37;17.27;;;;;;;;;;5029905;28;20631;-72
2021/11/11 06:23:33;;;;;;;38.57;26.17;;;;;;;;;;5014732;28;20183;-73
2021/11/11 06:25:58;;;;;;;26.23;15.73;;;;;;;;;;5023634;28;20166;-74
2021/11/11 06:28:24;;;;;;;43.77;28.10;;;;;;;;;;5021290;28;20400;-75
2021/11/11 06:30:49;;;;;;;47.20;28.40;;;;;;;;;;5013798;28;20177;-73
2021/11/11 06:33:14;;;;;;;45.27;28.17;;;;;;;;;;5013987;28;20153;-77
2021/11/11 06:35:40;;;;;;;44.37;27.60;;;;;;;;;;5031227;28;20170;-75
2021/11/11 06:38:05;;;;;;;48.07;28.83;;;;;;;;;;5029491;28;20197;-71
2021/11/11 06:40:31;;;;;;;49.87;30.50;;;;;;;;;;5026992;28;20588;-74
2021/11/11 06:42:57;;;;;;;52.93;32.77;;;;;;;;;;5016661;28;20170;-73
2021/11/11 06:45:27;;;;;;;48.10;32.73;;;;;;;;;;5026942;28;20463;-72
2021/11/11 06:47:53;;;;;;;51.03;32.47;;;;;;;;;;5028735;28;20216;-73
2021/11/11 06:50:18;;;;;;;62.03;37.30;;;;;;;;;;5030734;28;20879;-73
2021/11/11 06:52:44;;;;;;;73.40;41.23;;;;;;;;;;5031019;28;20384;-72
2021/11/11 06:55:10;;;;;;;52.20;33.07;;;;;;;;;;5024644;28;20520;-70
2021/11/11 06:57:35;;;;;;;73.03;41.60;;;;;;;;;;5012188;28;20170;-71
2021/11/11 07:00:01;;;;;;;65.27;36.77;;;;;;;;;;5010822;28;20397;-73
2021/11/11 07:02:26;;;;;;;61.00;38.47;;;;;;;;;;5024971;28;20558;-74
2021/11/11 07:04:52;;;;;;;60.10;35.10;;;;;;;;;;5028205;28;20668;-70
2021/11/11 07:07:17;;;;;;;60.60;37.50;;;;;;;;;;5030494;28;20644;-73
2021/11/11 07:09:43;;;;;;;78.00;41.23;;;;;;;;;;5030722;28;20150;-74
2021/11/11 07:12:08;;;;;;;63.43;41.00;;;;;;;;;;5030645;28;20158;-69
2021/11/11 07:14:34;;;;;;;60.23;36.80;;;;;;;;;;5030115;28;20162;-74
2021/11/11 07:17:00;;;;;;;71.33;40.00;;;;;;;;;;5030208;28;20573;-73
2021/11/11 07:19:25;;;;;;;46.93;30.40;;;;;;;;;;5028066;28;20170;-70
2021/11/11 07:21:51;;;;;;;59.70;37.87;;;;;;;;;;5017860;28;20409;-71
2021/11/11 07:24:17;;;;;;;47.97;33.03;;;;;;;;;;5022335;28;20248;-70
2021/11/11 07:26:42;;;;;;;46.90;31.67;;;;;;;;;;5017040;28;20409;-70
2021/11/11 07:29:08;;;;;;;59.20;36.40;;;;;;;;;;5028518;28;20209;-68
2021/11/11 07:31:34;;;;;;;71.43;36.77;;;;;;;;;;5019160;28;20188;-73
2021/11/11 07:33:59;;;;;;;59.70;35.50;;;;;;;;;;5024263;28;20413;-72
2021/11/11 07:36:25;;;;;;;57.10;34.00;;;;;;;;;;5029556;28;20561;-71
2021/11/11 07:38:51;;;;;;;61.73;36.33;;;;;;;;;;5030424;28;20205;-72
2021/11/11 07:41:16;;;;;;;62.57;40.20;;;;;;;;;;5028191;28;20178;-71
2021/11/11 07:43:41;;;;;;;66.03;40.57;;;;;;;;;;5030776;28;20405;-71
2021/11/11 07:46:08;;;;;;;66.60;44.80;;;;;;;;;;5026008;28;20913;-74
2021/11/11 07:48:34;;;;;;;65.32;43.22;;;;;;;;;;5019722;28;20537;-74
2021/11/11 07:51:00;;;;;;;58.53;36.77;;;;;;;;;;5022228;28;20154;-71
2021/11/11 07:53:26;;;;;;;48.27;33.67;;;;;;;;;;5028857;28;20474;-69
2021/11/11 07:55:51;;;;;;;49.10;30.53;;;;;;;;;;5027502;28;20159;-71
2021/11/11 07:58:17;;;;;;;50.67;32.17;;;;;;;;;;5016755;28;20911;-75
2021/11/11 08:00:43;;;;;;;48.13;29.93;;;;;;;;;;5020507;28;20169;-75
2021/11/11 08:03:08;;;;;;;51.40;30.70;;;;;;;;;;5013574;28;20515;-70
2021/11/11 08:05:34;;;;;;;42.57;29.30;;;;;;;;;;5027678;28;20252;-75
2021/11/11 08:07:59;;;;;;;43.33;30.38;;;;;;;;;;5013819;28;20789;-71
2021/11/11 08:10:25;;;;;;;47.97;30.63;;;;;;;;;;5012436;28;20417;-74
2021/11/11 08:12:51;;;;;;;37.77;27.60;;;;;;;;;;5014226;28;20158;-71
2021/11/11 08:15:17;;;;;;;41.17;27.37;;;;;;;;;;5013328;28;20158;-73
2021/11/11 08:17:43;;;;;;;44.20;28.10;;;;;;;;;;5024261;28;20909;-69
2021/11/11 08:20:09;;;;;;;42.67;27.67;;;;;;;;;;5022310;28;20402;-71
2021/11/11 08:22:34;;;;;;;41.33;28.10;;;;;;;;;;5018328;28;20560;-73
2021/11/11 08:25:01;;;;;;;41.60;26.33;;;;;;;;;;5032190;28;20193;-74
2021/11/11 08:27:26;;;;;;;34.50;22.30;;;;;;;;;;5030776;28;20177;-72
2021/11/11 08:29:51;;;;;;;33.63;19.77;;;;;;;;;;5015067;28;20417;-76
2021/11/11 08:32:17;;;;;;;31.23;20.10;;;;;;;;;;5016103;28;20178;-74
2021/11/11 08:34:43;;;;;;;35.80;20.00;;;;;;;;;;5012993;28;20151;-75
2021/11/11 08:37:09;;;;;;;34.80;18.92;;;;;;;;;;5013143;28;20901;-74
2021/11/11 08:39:35;;;;;;;28.83;16.70;;;;;;;;;;5022551;28;20172;-73
2021/11/11 08:42:01;;;;;;;24.63;15.67;;;;;;;;;;5029847;28;20417;-73
2021/11/11 08:44:26;;;;;;;29.70;17.10;;;;;;;;;;5032764;28;20448;-72
2021/11/11 08:46:52;;;;;;;25.63;16.50;;;;;;;;;;5021726;28;20574;-73
2021/11/11 08:49:18;;;;;;;14.60;10.00;;;;;;;;;;5031085;28;20174;-74
2021/11/11 08:51:44;;;;;;;14.13;8.13;;;;;;;;;;5031669;28;20165;-70
2021/11/11 08:54:10;;;;;;;17.35;8.52;;;;;;;;;;5032341;28;20397;-74
2021/11/11 08:56:36;;;;;;;15.52;9.88;;;;;;;;;;5029808;28;20408;-74
2021/11/11 08:59:02;;;;;;;16.53;9.97;;;;;;;;;;5030863;28;20190;-72
2021/11/11 09:01:29;;;;;;;18.93;9.37;;;;;;;;;;5032593;28;20200;-75
2021/11/11 09:03:56;;;;;;;15.90;8.63;;;;;;;;;;5031668;28;20449;-74
2021/11/11 09:06:21;;;;;;;10.47;6.63;;;;;;;;;;5032597;28;20455;-75
2021/11/11 09:08:51;;;;;;;15.07;7.17;;;;;;;;;;5022385;28;20400;-73
2021/11/11 09:11:16;;;;;;;9.70;6.47;;;;;;;;;;5032662;28;20603;-70
2021/11/11 09:13:42;;;;;;;20.53;6.97;;;;;;;;;;5030130;28;20401;-74
2021/11/11 09:16:07;;;;;;;7.67;4.23;;;;;;;;;;5031852;28;20571;-75
2021/11/11 09:18:33;;;;;;;8.80;4.50;;;;;;;;;;5028395;28;20166;-71
2021/11/11 09:20:58;;;;;;;8.00;4.80;;;;;;;;;;5038131;28;20162;-72
2021/11/11 09:23:23;;;;;;;8.60;5.13;;;;;;;;;;5031916;28;20162;-72
2021/11/11 09:25:49;;;;;;;14.80;5.43;;;;;;;;;;5031561;28;20198;-75
2021/11/11 09:28:14;;;;;;;12.00;6.13;;;;;;;;;;5030657;28;20507;-75
2021/11/11 09:30:39;;;;;;;20.57;14.60;;;;;;;;;;5017954;28;20252;-74
2021/11/11 09:33:05;;;;;;;8.97;5.50;;;;;;;;;;5010429;28;20190;-71
2021/11/11 09:35:31;;;;;;;9.13;4.33;;;;;;;;;;5011859;28;20213;-77
2021/11/11 09:37:57;;;;;;;6.50;3.60;;;;;;;;;;5023522;28;20162;-72
2021/11/11 09:40:24;;;;;;;9.83;4.60;;;;;;;;;;5016293;28;20497;-71
2021/11/11 09:42:50;;;;;;;11.70;5.37;;;;;;;;;;5011305;28;20213;-71
2021/11/11 09:45:17;;;;;;;7.60;3.90;;;;;;;;;;5011524;28;20535;-71
2021/11/11 09:47:45;;;;;;;5.93;3.23;;;;;;;;;;5025347;28;20988;-71
2021/11/11 09:50:11;;;;;;;16.70;3.43;;;;;;;;;;5029606;28;20408;-71
2021/11/11 09:52:39;;;;;;;9.83;3.00;;;;;;;;;;5030887;28;20404;-73
2021/11/11 10:00:32;;;;;;;6.93;2.03;;;;;;;;;;5020487;28;20567;-74
2021/11/11 10:02:58;;;;;;;4.47;1.57;;;;;;;;;;5010996;28;20951;-75
2021/11/11 10:05:23;;;;;;;6.90;1.70;;;;;;;;;;5010717;28;20189;-73
2021/11/11 10:07:49;;;;;;;3.77;1.20;;;;;;;;;;5012386;28;20174;-72
2021/11/11 10:10:37;;;;;;;6.60;1.20;;;;;;;;;;5010477;28;20217;-74
2021/11/11 10:13:20;;;;;;;7.83;1.07;;;;;;;;;;5016369;28;20827;-71
2021/11/11 10:15:57;;;;;;;6.43;2.20;;;;;;;;;;5026276;28;20408;-72
2021/11/11 10:18:36;;;;;;;5.70;1.50;;;;;;;;;;5021646;28;20596;-72
2021/11/11 10:21:02;;;;;;;4.03;1.20;;;;;;;;;;5012097;28;20394;-72
2021/11/11 10:23:28;;;;;;;5.00;1.30;;;;;;;;;;5011158;28;20429;-73
2021/11/11 10:26:14;;;;;;;3.60;1.20;;;;;;;;;;5008267;28;20182;-72
2021/11/11 10:28:40;;;;;;;4.03;0.90;;;;;;;;;;5018018;28;20174;-71
2021/11/11 10:31:12;;;;;;;4.93;1.23;;;;;;;;;;5027916;28;20397;-70
2021/11/11 10:33:38;;;;;;;3.20;0.90;;;;;;;;;;5022804;28;20587;-71
2021/11/11 10:36:06;;;;;;;6.90;1.10;;;;;;;;;;5030431;28;20400;-71
2021/11/11 10:38:31;;;;;;;4.10;1.20;;;;;;;;;;5020206;28;20223;-72
2021/11/11 10:40:57;;;;;;;4.70;1.20;;;;;;;;;;5030458;28;20420;-72
2021/11/11 10:43:25;;;;;;;3.97;1.77;;;;;;;;;;5030509;28;20154;-71
2021/11/11 10:45:52;;;;;;;4.80;0.90;;;;;;;;;;5015463;28;20453;-71
2021/11/11 10:48:19;;;;;;;3.93;1.00;;;;;;;;;;5010856;28;20444;-71
2021/11/11 10:50:46;;;;;;;4.43;1.20;;;;;;;;;;5010673;28;20405;-72
2021/11/11 10:53:12;;;;;;;8.50;1.27;;;;;;;;;;5010540;28;20500;-75
2021/11/11 10:55:39;;;;;;;7.63;3.93;;;;;;;;;;5010597;28;20402;-73
2021/11/11 10:58:06;;;;;;;9.30;2.90;;;;;;;;;;5023796;28;20922;-72
2021/11/11 11:00:34;;;;;;;12.47;3.83;;;;;;;;;;5028991;28;20479;-70
2021/11/11 11:03:04;;;;;;;3.83;1.43;;;;;;;;;;5020554;28;20511;-72
2021/11/11 11:05:32;;;;;;;5.90;1.70;;;;;;;;;;5010441;28;20449;-72
2021/11/11 11:08:08;;;;;;;6.57;1.50;;;;;;;;;;5010033;28;20386;-70
2021/11/11 11:10:34;;;;;;;6.40;1.40;;;;;;;;;;5021054;28;20410;-71
2021/11/11 11:13:04;;;;;;;5.60;1.70;;;;;;;;;;5026689;28;20502;-72
2021/11/11 11:15:41;;;;;;;5.07;1.50;;;;;;;;;;5030431;28;20393;-71
2021/11/11 11:18:07;;;;;;;5.90;1.60;;;;;;;;;;5018808;28;20496;-72
2021/11/11 11:20:33;;;;;;;5.83;1.30;;;;;;;;;;5012924;28;20842;-70
2021/11/11 11:23:12;;;;;;;6.87;1.30;;;;;;;;;;5032646;28;20400;-71
2021/11/11 11:25:38;;;;;;;6.50;1.97;;;;;;;;;;5020294;28;20456;-71
2021/11/11 11:28:25;;;;;;;3.10;0.90;;;;;;;;;;5032587;28;20469;-74
2021/11/11 11:30:52;;;;;;;6.57;1.30;;;;;;;;;;5025874;28;20162;-72
2021/11/11 11:33:29;;;;;;;4.30;1.43;;;;;;;;;;5029369;28;20439;-70
2021/11/11 11:35:55;;;;;;;5.50;1.40;;;;;;;;;;5024243;28;20891;-72
2021/11/11 11:38:24;;;;;;;5.20;1.30;;;;;;;;;;5025084;28;20418;-74
2021/11/11 11:40:49;;;;;;;4.03;1.37;;;;;;;;;;5026310;28;20244;-71
2021/11/11 11:43:31;;;;;;;4.50;2.23;;;;;;;;;;5016177;28;20832;-73
2021/11/11 11:46:15;;;;;;;7.63;1.50;;;;;;;;;;5018100;28;20206;-72
2021/11/11 11:48:41;;;;;;;7.87;1.73;;;;;;;;;;5032549;28;20413;-71
2021/11/11 11:51:09;;;;;;;3.60;1.00;;;;;;;;;;5026485;28;20394;-70
2021/11/11 11:53:42;;;;;;;3.60;1.30;;;;;;;;;;5013650;28;20402;-72
2021/11/11 11:56:14;;;;;;;5.70;1.33;;;;;;;;;;5022575;28;20462;-71
2021/11/11 11:58:45;;;;;;;4.50;2.00;;;;;;;;;;5047127;28;20415;-70
2021/11/11 12:01:29;;;;;;;5.60;1.27;;;;;;;;;;5033234;28;20408;-70
2021/11/11 12:09:41;;;;;;;7.80;1.20;;;;;;;;;;5032419;28;20395;-73
2021/11/11 12:13:11;;;;;;;4.47;1.40;;;;;;;;;;5031772;28;20413;-72
2021/11/11 12:15:22;;;;;;;4.83;1.07;;;;;;;;;;5023012;28;20416;-72
2021/11/11 12:39:46;;;;;;;7.53;1.70;;;;;;;;;;5032543;28;20388;-71
2021/11/11 12:42:31;;;;;;;4.80;1.40;;;;;;;;;;5028711;28;20421;-72
2021/11/11 12:45:00;;;;;;;6.27;2.23;;;;;;;;;;5012120;28;20958;-74
2021/11/11 12:47:34;;;;;;;4.40;1.50;;;;;;;;;;5015204;28;20954;-73
2021/11/11 12:50:18;;;;;;;5.23;1.60;;;;;;;;;;5030178;28;20498;-72
2021/11/11 12:52:43;;;;;;;4.83;1.50;;;;;;;;;;5032266;28;20392;-75
2021/11/11 12:55:14;;;;;;;4.10;1.10;;;;;;;;;;5031197;28;20400;-75
2021/11/11 12:57:57;;;;;;;4.30;1.20;;;;;;;;;;5031029;28;20177;-72
2021/11/11 13:00:37;;;;;;;7.27;2.10;;;;;;;;;;5031627;28;20907;-72
2021/11/11 13:03:03;;;;;;;5.40;2.27;;;;;;;;;;5031896;28;20930;-73
2021/11/11 13:05:49;;;;;;;7.80;2.03;;;;;;;;;;5030935;28;20452;-72
2021/11/11 13:08:19;;;;;;;9.60;3.10;;;;;;;;;;5012475;28;20467;-72
2021/11/11 13:10:57;;;;;;;7.13;1.60;;;;;;;;;;5019670;28;20404;-73
2021/11/11 13:13:26;;;;;;;3.80;1.03;;;;;;;;;;5015773;28;20443;-72
2021/11/11 13:15:56;;;;;;;4.40;1.50;;;;;;;;;;5029545;28;20400;-71
2021/11/11 13:18:40;;;;;;;4.60;1.03;;;;;;;;;;5031617;28;20396;-73
2021/11/11 13:21:14;;;;;;;6.60;1.60;;;;;;;;;;5031284;28;20562;-72
2021/11/11 13:23:53;;;;;;;6.10;1.20;;;;;;;;;;5029910;28;20481;-72
2021/11/11 13:54:03;;;;;;;5.53;2.00;;;;;;;;;;5038178;28;20416;-73
2021/11/11 16:01:37;;;;;;;12.77;4.30;;;;;;;;;;5031560;28;20435;-79
2021/11/11 16:20:50;;;;;;;19.37;9.67;;;;;;;;;;5013355;28;20389;-71
2021/11/11 16:28:38;;;;;;;25.33;8.40;;;;;;;;;;5025524;28;20423;-68
2021/11/11 16:31:04;;;;;;;14.90;7.73;;;;;;;;;;5033151;28;20770;-69
2021/11/11 16:33:29;;;;;;;14.50;7.70;;;;;;;;;;5022606;28;20401;-71
2021/11/11 16:35:57;;;;;;;19.90;8.20;;;;;;;;;;5016546;28;20240;-70
2021/11/11 16:38:22;;;;;;;16.70;7.90;;;;;;;;;;5020212;28;20677;-68
2021/11/11 16:40:48;;;;;;;18.60;7.63;;;;;;;;;;5012297;28;20495;-70
2021/11/11 16:43:13;;;;;;;17.33;6.63;;;;;;;;;;5019748;28;20228;-70
2021/11/11 16:45:38;;;;;;;14.60;6.70;;;;;;;;;;5018162;28;20206;-73
2021/11/11 16:48:04;;;;;;;20.37;10.10;;;;;;;;;;5013636;28;20568;-76
2021/11/11 16:50:29;;;;;;;10.97;5.33;;;;;;;;;;5018024;28;20264;-76
2021/11/11 16:52:56;;;;;;;24.03;6.67;;;;;;;;;;5033228;28;20207;-79
2021/11/11 16:55:23;;;;;;;11.67;4.50;;;;;;;;;;5024712;28;20197;-74
2021/11/11 16:57:48;;;;;;;9.43;3.20;;;;;;;;;;5012924;28;20390;-80
2021/11/11 17:00:14;;;;;;;5.90;2.30;;;;;;;;;;5015079;28;20409;-80
2021/11/11 17:02:40;;;;;;;6.80;2.33;;;;;;;;;;5016260;28;20218;-83
2021/11/11 17:05:06;;;;;;;7.70;2.87;;;;;;;;;;5022205;28;20460;-77
2021/11/11 17:07:31;;;;;;;5.57;3.23;;;;;;;;;;5031803;28;20166;-79
2021/11/11 17:09:57;;;;;;;5.40;2.30;;;;;;;;;;5029704;28;21268;-76
2021/11/11 17:12:22;;;;;;;7.50;3.37;;;;;;;;;;5030625;28;20165;-78
2021/11/11 17:14:53;;;;;;;5.77;2.90;;;;;;;;;;5028242;28;20544;-78
2021/11/11 17:17:19;;;;;;;8.60;3.10;;;;;;;;;;5029828;28;20222;-76
2021/11/11 17:19:45;;;;;;;6.50;3.10;;;;;;;;;;5032129;28;20401;-75
2021/11/11 17:22:14;;;;;;;6.27;2.60;;;;;;;;;;5031969;28;20157;-76
2021/11/11 17:24:43;;;;;;;9.30;4.10;;;;;;;;;;5025916;28;20456;-78
2021/11/11 17:27:20;;;;;;;5.40;2.60;;;;;;;;;;5022799;28;20397;-77
2021/11/11 17:29:45;;;;;;;6.57;2.87;;;;;;;;;;5013842;28;20410;-73
2021/11/11 17:32:11;;;;;;;6.83;2.47;;;;;;;;;;5028057;28;20404;-77
2021/11/11 17:34:37;;;;;;;10.07;6.40;;;;;;;;;;5029070;28;20184;-77
2021/11/11 17:37:11;;;;;;;10.20;4.90;;;;;;;;;;5085029;28;20529;-76
2021/11/11 17:39:36;;;;;;;10.30;5.43;;;;;;;;;;5075637;28;20407;-77
2021/11/11 17:42:06;;;;;;;12.80;4.30;;;;;;;;;;5067312;28;20168;-75
2021/11/11 17:44:34;;;;;;;7.97;2.80;;;;;;;;;;5065232;28;20237;-79
2021/11/11 17:47:03;;;;;;;10.67;3.57;;;;;;;;;;5067841;28;20471;-73
2021/11/11 17:49:38;;;;;;;34.10;17.47;;;;;;;;;;5068028;28;20477;-74
2021/11/11 17:52:11;;;;;;;38.77;23.87;;;;;;;;;;5068098;28;20883;-74
2021/11/11 17:54:36;;;;;;;48.80;29.77;;;;;;;;;;5061006;28;20406;-75
2021/11/11 17:57:03;;;;;;;45.67;28.87;;;;;;;;;;5088619;28;20449;-80
2021/11/11 17:59:31;;;;;;;55.53;30.40;;;;;;;;;;5070830;28;20410;-79
2021/11/11 18:01:58;;;;;;;54.70;31.93;;;;;;;;;;5066599;28;20393;-77
2021/11/11 18:04:24;;;;;;;42.67;28.40;;;;;;;;;;5066403;28;20395;-81
2021/11/11 18:06:54;;;;;;;43.50;27.73;;;;;;;;;;5066382;28;20398;-80
2021/11/11 18:09:56;;;;;;;53.67;27.47;;;;;;;;;;5065780;28;20501;-79
2021/11/11 18:12:11;;;;;;;41.10;23.23;;;;;;;;;;5063143;28;20411;-80
2021/11/11 18:14:37;;;;;;;45.60;26.80;;;;;;;;;;5067205;28;20424;-79
2021/11/11 18:17:02;;;;;;;45.07;27.33;;;;;;;;;;5064792;28;20200;-78
2021/11/11 18:19:29;;;;;;;42.80;25.63;;;;;;;;;;5065501;28;20161;-76
2021/11/11 18:21:55;;;;;;;55.80;34.20;;;;;;;;;;5067292;28;20161;-76
2021/11/11 18:24:21;;;;;;;45.20;27.40;;;;;;;;;;5065661;28;20422;-76